Milford, Delaware
Current Conditions -  °F | °C
As of 1:58 AM on Saturday 25 Oct 2014 (Local Time) from KDOV Reporting Station
Clear Clear  
Wind Chill: 53°   Ceiling: Unl
Heat Index: 53°   Visibility: 10mi
Dew Point: 40°   Wind: 8mph
Humidity: 61%   Direction: 280°W
Pressure: 29.89"   Gusts: NA
Location:  38.93°N, 75.43°W
Report Text: KDOV 250558Z AUTO 28007KT 10SM CLR 12/05 A2989 RMK AO2 SLP125 T01190047 10150 20118 52006
Loading
Personal Weather Stations






























Interactive Weather Map
Tropical Storm Tracking
New forecast layout! Learn more

10-Day Weather Forecast

Advertisements
Track Severe Weather on mobile